sensor_id;sensor_type;location;lat;lon;timestamp;P1;durP1;ratioP1;P2;durP2;ratioP2
37383;SDS011;23258;49.718;11.082;2022-11-20T00:01:51;12.30;;;9.53;;
37383;SDS011;23258;49.718;11.082;2022-11-20T00:04:20;13.60;;;8.90;;
37383;SDS011;23258;49.718;11.082;2022-11-20T00:06:50;12.23;;;8.80;;
37383;SDS011;23258;49.718;11.082;2022-11-20T00:09:22;10.83;;;9.03;;
37383;SDS011;23258;49.718;11.082;2022-11-20T00:11:52;13.40;;;9.47;;
37383;SDS011;23258;49.718;11.082;2022-11-20T00:14:21;15.17;;;10.03;;
37383;SDS011;23258;49.718;11.082;2022-11-20T00:16:50;12.50;;;9.23;;
37383;SDS011;23258;49.718;11.082;2022-11-20T00:19:20;10.83;;;8.70;;
37383;SDS011;23258;49.718;11.082;2022-11-20T00:21:49;13.97;;;9.63;;
37383;SDS011;23258;49.718;11.082;2022-11-20T00:24:24;11.37;;;9.07;;
37383;SDS011;23258;49.718;11.082;2022-11-20T00:26:54;10.83;;;8.33;;
37383;SDS011;23258;49.718;11.082;2022-11-20T00:29:23;12.07;;;8.50;;
37383;SDS011;23258;49.718;11.082;2022-11-20T00:31:52;9.57;;;7.47;;
37383;SDS011;23258;49.718;11.082;2022-11-20T00:34:22;13.47;;;8.37;;
37383;SDS011;23258;49.718;11.082;2022-11-20T00:36:51;10.50;;;8.27;;
37383;SDS011;23258;49.718;11.082;2022-11-20T00:39:23;10.80;;;8.50;;
37383;SDS011;23258;49.718;11.082;2022-11-20T00:41:53;9.53;;;7.73;;
37383;SDS011;23258;49.718;11.082;2022-11-20T00:44:23;11.87;;;8.47;;
37383;SDS011;23258;49.718;11.082;2022-11-20T00:46:52;9.47;;;7.40;;
37383;SDS011;23258;49.718;11.082;2022-11-20T00:49:21;10.17;;;8.07;;
37383;SDS011;23258;49.718;11.082;2022-11-20T00:51:51;11.40;;;8.43;;
37383;SDS011;23258;49.718;11.082;2022-11-20T00:54:20;10.40;;;7.50;;
37383;SDS011;23258;49.718;11.082;2022-11-20T00:56:54;11.27;;;8.50;;
37383;SDS011;23258;49.718;11.082;2022-11-20T00:59:24;8.90;;;7.90;;
37383;SDS011;23258;49.718;11.082;2022-11-20T01:01:54;11.57;;;7.73;;
37383;SDS011;23258;49.718;11.082;2022-11-20T01:04:23;9.40;;;7.67;;
37383;SDS011;23258;49.718;11.082;2022-11-20T01:06:53;11.40;;;7.93;;
37383;SDS011;23258;49.718;11.082;2022-11-20T01:09:22;11.07;;;8.60;;
37383;SDS011;23258;49.718;11.082;2022-11-20T01:11:54;10.53;;;8.67;;
37383;SDS011;23258;49.718;11.082;2022-11-20T01:14:25;10.13;;;8.67;;
37383;SDS011;23258;49.718;11.082;2022-11-20T01:16:55;11.20;;;7.87;;
37383;SDS011;23258;49.718;11.082;2022-11-20T01:19:24;9.47;;;7.73;;
37383;SDS011;23258;49.718;11.082;2022-11-20T01:21:54;11.53;;;8.50;;
37383;SDS011;23258;49.718;11.082;2022-11-20T01:24:24;11.97;;;8.27;;
37383;SDS011;23258;49.718;11.082;2022-11-20T01:26:56;9.07;;;8.10;;
37383;SDS011;23258;49.718;11.082;2022-11-20T01:29:25;10.57;;;7.40;;
37383;SDS011;23258;49.718;11.082;2022-11-20T01:31:55;10.80;;;8.07;;
37383;SDS011;23258;49.718;11.082;2022-11-20T01:34:24;10.93;;;7.60;;
37383;SDS011;23258;49.718;11.082;2022-11-20T01:36:54;8.60;;;7.70;;
37383;SDS011;23258;49.718;11.082;2022-11-20T01:39:24;10.70;;;8.20;;
37383;SDS011;23258;49.718;11.082;2022-11-20T01:41:57;12.90;;;8.43;;
37383;SDS011;23258;49.718;11.082;2022-11-20T01:47:30;11.37;;;8.30;;
37383;SDS011;23258;49.718;11.082;2022-11-20T01:50:03;9.03;;;8.10;;
37383;SDS011;23258;49.718;11.082;2022-11-20T01:52:34;10.80;;;8.77;;
37383;SDS011;23258;49.718;11.082;2022-11-20T01:55:05;9.40;;;7.50;;
37383;SDS011;23258;49.718;11.082;2022-11-20T01:57:38;10.73;;;8.57;;
37383;SDS011;23258;49.718;11.082;2022-11-20T02:00:10;11.27;;;8.37;;
37383;SDS011;23258;49.718;11.082;2022-11-20T02:02:40;10.07;;;7.63;;
37383;SDS011;23258;49.718;11.082;2022-11-20T02:05:12;11.23;;;8.17;;
37383;SDS011;23258;49.718;11.082;2022-11-20T02:07:43;10.90;;;8.20;;
37383;SDS011;23258;49.718;11.082;2022-11-20T02:10:13;11.17;;;8.17;;
37383;SDS011;23258;49.718;11.082;2022-11-20T02:12:46;10.57;;;8.43;;
37383;SDS011;23258;49.718;11.082;2022-11-20T02:15:28;10.20;;;8.40;;
37383;SDS011;23258;49.718;11.082;2022-11-20T02:17:57;10.93;;;7.73;;
37383;SDS011;23258;49.718;11.082;2022-11-20T02:20:27;13.03;;;8.37;;
37383;SDS011;23258;49.718;11.082;2022-11-20T02:22:57;9.33;;;7.73;;
37383;SDS011;23258;49.718;11.082;2022-11-20T02:25:30;9.83;;;7.23;;
37383;SDS011;23258;49.718;11.082;2022-11-20T02:28:02;11.77;;;7.97;;
37383;SDS011;23258;49.718;11.082;2022-11-20T02:30:32;12.43;;;8.53;;
37383;SDS011;23258;49.718;11.082;2022-11-20T02:33:01;9.93;;;7.90;;
37383;SDS011;23258;49.718;11.082;2022-11-20T02:35:41;11.10;;;7.73;;
37383;SDS011;23258;49.718;11.082;2022-11-20T02:38:11;9.60;;;7.57;;
37383;SDS011;23258;49.718;11.082;2022-11-20T02:40:44;10.17;;;8.00;;
37383;SDS011;23258;49.718;11.082;2022-11-20T02:43:20;11.83;;;8.77;;
37383;SDS011;23258;49.718;11.082;2022-11-20T02:45:50;10.63;;;8.03;;
37383;SDS011;23258;49.718;11.082;2022-11-20T02:48:19;10.97;;;9.07;;
37383;SDS011;23258;49.718;11.082;2022-11-20T02:50:50;9.90;;;7.13;;
37383;SDS011;23258;49.718;11.082;2022-11-20T02:53:20;10.73;;;8.47;;
37383;SDS011;23258;49.718;11.082;2022-11-20T02:55:52;12.60;;;8.33;;
37383;SDS011;23258;49.718;11.082;2022-11-20T02:58:22;10.93;;;8.67;;
37383;SDS011;23258;49.718;11.082;2022-11-20T03:00:51;9.83;;;8.07;;
37383;SDS011;23258;49.718;11.082;2022-11-20T03:03:22;9.37;;;7.33;;
37383;SDS011;23258;49.718;11.082;2022-11-20T03:05:51;8.87;;;7.57;;
37383;SDS011;23258;49.718;11.082;2022-11-20T03:08:21;8.40;;;7.27;;
37383;SDS011;23258;49.718;11.082;2022-11-20T03:10:53;10.97;;;8.27;;
37383;SDS011;23258;49.718;11.082;2022-11-20T03:13:22;11.70;;;8.30;;
37383;SDS011;23258;49.718;11.082;2022-11-20T03:15:53;10.07;;;7.20;;
37383;SDS011;23258;49.718;11.082;2022-11-20T03:18:23;12.07;;;8.47;;
37383;SDS011;23258;49.718;11.082;2022-11-20T03:20:56;11.67;;;8.57;;
37383;SDS011;23258;49.718;11.082;2022-11-20T03:23:26;8.93;;;7.77;;
37383;SDS011;23258;49.718;11.082;2022-11-20T03:26:09;12.47;;;8.47;;
37383;SDS011;23258;49.718;11.082;2022-11-20T03:28:39;8.77;;;7.63;;
37383;SDS011;23258;49.718;11.082;2022-11-20T03:31:09;11.27;;;7.57;;
37383;SDS011;23258;49.718;11.082;2022-11-20T03:33:39;9.83;;;7.77;;
37383;SDS011;23258;49.718;11.082;2022-11-20T03:36:10;13.10;;;8.30;;
37383;SDS011;23258;49.718;11.082;2022-11-20T03:38:40;11.43;;;8.50;;
37383;SDS011;23258;49.718;11.082;2022-11-20T03:41:13;9.83;;;8.17;;
37383;SDS011;23258;49.718;11.082;2022-11-20T03:43:46;11.70;;;7.47;;
37383;SDS011;23258;49.718;11.082;2022-11-20T03:46:16;11.77;;;7.97;;
37383;SDS011;23258;49.718;11.082;2022-11-20T03:48:45;10.27;;;8.33;;
37383;SDS011;23258;49.718;11.082;2022-11-20T03:51:18;10.83;;;8.40;;
37383;SDS011;23258;49.718;11.082;2022-11-20T03:53:49;12.03;;;8.03;;
37383;SDS011;23258;49.718;11.082;2022-11-20T03:56:22;11.13;;;7.43;;
37383;SDS011;23258;49.718;11.082;2022-11-20T03:58:52;11.53;;;8.13;;
37383;SDS011;23258;49.718;11.082;2022-11-20T04:01:22;10.80;;;7.90;;
37383;SDS011;23258;49.718;11.082;2022-11-20T04:03:52;12.97;;;8.83;;
37383;SDS011;23258;49.718;11.082;2022-11-20T04:06:22;10.23;;;7.57;;
37383;SDS011;23258;49.718;11.082;2022-11-20T04:08:53;11.00;;;8.13;;
37383;SDS011;23258;49.718;11.082;2022-11-20T04:11:26;12.87;;;8.53;;
37383;SDS011;23258;49.718;11.082;2022-11-20T04:13:56;14.27;;;8.77;;
37383;SDS011;23258;49.718;11.082;2022-11-20T04:16:28;13.30;;;8.13;;
37383;SDS011;23258;49.718;11.082;2022-11-20T04:18:59;12.20;;;8.73;;
37383;SDS011;23258;49.718;11.082;2022-11-20T04:21:28;12.17;;;8.60;;
37383;SDS011;23258;49.718;11.082;2022-11-20T04:23:58;11.80;;;7.87;;
37383;SDS011;23258;49.718;11.082;2022-11-20T04:26:31;12.30;;;9.10;;
37383;SDS011;23258;49.718;11.082;2022-11-20T04:29:00;9.97;;;7.90;;
37383;SDS011;23258;49.718;11.082;2022-11-20T04:31:31;11.97;;;8.37;;
37383;SDS011;23258;49.718;11.082;2022-11-20T04:34:01;12.10;;;8.20;;
37383;SDS011;23258;49.718;11.082;2022-11-20T04:36:31;10.13;;;8.03;;
37383;SDS011;23258;49.718;11.082;2022-11-20T04:39:02;12.90;;;8.57;;
37383;SDS011;23258;49.718;11.082;2022-11-20T04:41:35;13.90;;;8.63;;
37383;SDS011;23258;49.718;11.082;2022-11-20T04:44:05;11.53;;;8.77;;
37383;SDS011;23258;49.718;11.082;2022-11-20T04:46:35;10.40;;;8.17;;
37383;SDS011;23258;49.718;11.082;2022-11-20T04:49:05;12.37;;;8.77;;
37383;SDS011;23258;49.718;11.082;2022-11-20T04:51:34;12.07;;;8.93;;
37383;SDS011;23258;49.718;11.082;2022-11-20T04:54:04;11.43;;;9.47;;
37383;SDS011;23258;49.718;11.082;2022-11-20T04:56:37;12.63;;;9.17;;
37383;SDS011;23258;49.718;11.082;2022-11-20T04:59:06;15.40;;;9.53;;
37383;SDS011;23258;49.718;11.082;2022-11-20T05:01:36;13.03;;;9.00;;
37383;SDS011;23258;49.718;11.082;2022-11-20T05:04:05;10.87;;;8.90;;
37383;SDS011;23258;49.718;11.082;2022-11-20T05:06:35;10.60;;;8.40;;
37383;SDS011;23258;49.718;11.082;2022-11-20T05:09:04;11.70;;;9.13;;
37383;SDS011;23258;49.718;11.082;2022-11-20T05:11:36;13.30;;;9.10;;
37383;SDS011;23258;49.718;11.082;2022-11-20T05:14:06;10.90;;;8.40;;
37383;SDS011;23258;49.718;11.082;2022-11-20T05:16:36;12.17;;;8.53;;
37383;SDS011;23258;49.718;11.082;2022-11-20T05:19:05;12.07;;;9.17;;
37383;SDS011;23258;49.718;11.082;2022-11-20T05:21:35;11.97;;;8.03;;
37383;SDS011;23258;49.718;11.082;2022-11-20T05:24:05;13.70;;;10.20;;
37383;SDS011;23258;49.718;11.082;2022-11-20T05:26:37;12.50;;;9.17;;
37383;SDS011;23258;49.718;11.082;2022-11-20T05:29:06;13.73;;;9.83;;
37383;SDS011;23258;49.718;11.082;2022-11-20T05:31:36;11.67;;;8.90;;
37383;SDS011;23258;49.718;11.082;2022-11-20T05:34:05;11.10;;;8.90;;
37383;SDS011;23258;49.718;11.082;2022-11-20T05:36:35;12.50;;;8.93;;
37383;SDS011;23258;49.718;11.082;2022-11-20T05:39:04;13.90;;;8.90;;
37383;SDS011;23258;49.718;11.082;2022-11-20T05:41:37;13.40;;;8.87;;
37383;SDS011;23258;49.718;11.082;2022-11-20T05:44:06;11.97;;;9.10;;
37383;SDS011;23258;49.718;11.082;2022-11-20T05:46:36;14.77;;;10.47;;
37383;SDS011;23258;49.718;11.082;2022-11-20T05:49:05;16.57;;;11.00;;
37383;SDS011;23258;49.718;11.082;2022-11-20T05:51:35;12.87;;;9.60;;
37383;SDS011;23258;49.718;11.082;2022-11-20T05:54:04;15.10;;;10.13;;
37383;SDS011;23258;49.718;11.082;2022-11-20T05:56:36;12.13;;;9.83;;
37383;SDS011;23258;49.718;11.082;2022-11-20T05:59:06;14.63;;;10.50;;
37383;SDS011;23258;49.718;11.082;2022-11-20T06:01:35;13.97;;;9.43;;
37383;SDS011;23258;49.718;11.082;2022-11-20T06:04:05;14.13;;;9.37;;
37383;SDS011;23258;49.718;11.082;2022-11-20T06:06:34;13.93;;;9.57;;
37383;SDS011;23258;49.718;11.082;2022-11-20T06:09:04;14.23;;;9.30;;
37383;SDS011;23258;49.718;11.082;2022-11-20T06:11:33;16.60;;;10.10;;
37383;SDS011;23258;49.718;11.082;2022-11-20T06:14:06;14.33;;;10.13;;
37383;SDS011;23258;49.718;11.082;2022-11-20T06:16:35;10.63;;;8.67;;
37383;SDS011;23258;49.718;11.082;2022-11-20T06:19:05;14.27;;;9.90;;
37383;SDS011;23258;49.718;11.082;2022-11-20T06:21:34;11.53;;;9.20;;
37383;SDS011;23258;49.718;11.082;2022-11-20T06:24:08;13.47;;;8.33;;
37383;SDS011;23258;49.718;11.082;2022-11-20T06:26:38;13.53;;;9.93;;
37383;SDS011;23258;49.718;11.082;2022-11-20T06:29:10;13.17;;;10.03;;
37383;SDS011;23258;49.718;11.082;2022-11-20T06:31:39;11.60;;;8.53;;
37383;SDS011;23258;49.718;11.082;2022-11-20T06:34:09;14.67;;;10.47;;
37383;SDS011;23258;49.718;11.082;2022-11-20T06:36:38;13.70;;;9.23;;
37383;SDS011;23258;49.718;11.082;2022-11-20T06:39:08;11.57;;;9.27;;
37383;SDS011;23258;49.718;11.082;2022-11-20T06:41:37;12.40;;;9.20;;
37383;SDS011;23258;49.718;11.082;2022-11-20T06:44:09;12.30;;;8.67;;
37383;SDS011;23258;49.718;11.082;2022-11-20T06:46:39;11.80;;;9.73;;
37383;SDS011;23258;49.718;11.082;2022-11-20T06:49:08;14.17;;;9.67;;
37383;SDS011;23258;49.718;11.082;2022-11-20T06:51:38;14.27;;;9.47;;
37383;SDS011;23258;49.718;11.082;2022-11-20T06:54:07;14.73;;;9.67;;
37383;SDS011;23258;49.718;11.082;2022-11-20T06:56:37;13.67;;;10.37;;
37383;SDS011;23258;49.718;11.082;2022-11-20T06:59:06;14.93;;;9.60;;
37383;SDS011;23258;49.718;11.082;2022-11-20T07:01:39;15.67;;;9.83;;
37383;SDS011;23258;49.718;11.082;2022-11-20T07:04:08;15.80;;;10.40;;
37383;SDS011;23258;49.718;11.082;2022-11-20T07:06:38;13.30;;;9.90;;
37383;SDS011;23258;49.718;11.082;2022-11-20T07:09:07;16.93;;;10.07;;
37383;SDS011;23258;49.718;11.082;2022-11-20T07:11:38;12.47;;;8.93;;
37383;SDS011;23258;49.718;11.082;2022-11-20T07:14:07;15.77;;;10.27;;
37383;SDS011;23258;49.718;11.082;2022-11-20T07:16:40;11.90;;;8.87;;
37383;SDS011;23258;49.718;11.082;2022-11-20T07:19:09;13.87;;;10.13;;
37383;SDS011;23258;49.718;11.082;2022-11-20T07:21:39;16.97;;;12.13;;
37383;SDS011;23258;49.718;11.082;2022-11-20T07:24:08;17.30;;;11.47;;
37383;SDS011;23258;49.718;11.082;2022-11-20T07:26:38;14.17;;;9.97;;
37383;SDS011;23258;49.718;11.082;2022-11-20T07:29:07;12.87;;;9.97;;
37383;SDS011;23258;49.718;11.082;2022-11-20T07:31:37;13.30;;;9.77;;
37383;SDS011;23258;49.718;11.082;2022-11-20T07:34:09;12.57;;;11.27;;
37383;SDS011;23258;49.718;11.082;2022-11-20T07:36:38;10.90;;;9.80;;
37383;SDS011;23258;49.718;11.082;2022-11-20T07:39:08;13.23;;;11.07;;
37383;SDS011;23258;49.718;11.082;2022-11-20T07:41:38;13.97;;;11.10;;
37383;SDS011;23258;49.718;11.082;2022-11-20T07:44:07;15.40;;;11.67;;
37383;SDS011;23258;49.718;11.082;2022-11-20T07:46:37;14.67;;;10.77;;
37383;SDS011;23258;49.718;11.082;2022-11-20T07:49:09;13.73;;;9.33;;
37383;SDS011;23258;49.718;11.082;2022-11-20T07:51:38;12.10;;;9.30;;
37383;SDS011;23258;49.718;11.082;2022-11-20T07:54:08;12.90;;;10.17;;
37383;SDS011;23258;49.718;11.082;2022-11-20T07:56:37;9.53;;;8.27;;
37383;SDS011;23258;49.718;11.082;2022-11-20T07:59:07;10.37;;;9.17;;
37383;SDS011;23258;49.718;11.082;2022-11-20T08:01:38;13.80;;;10.10;;
37383;SDS011;23258;49.718;11.082;2022-11-20T08:04:10;13.80;;;9.60;;
37383;SDS011;23258;49.718;11.082;2022-11-20T08:06:42;12.23;;;10.13;;
37383;SDS011;23258;49.718;11.082;2022-11-20T08:09:12;13.70;;;9.77;;
37383;SDS011;23258;49.718;11.082;2022-11-20T08:11:41;12.63;;;9.67;;
37383;SDS011;23258;49.718;11.082;2022-11-20T08:14:23;12.83;;;9.80;;
37383;SDS011;23258;49.718;11.082;2022-11-20T08:16:54;12.63;;;10.17;;
37383;SDS011;23258;49.718;11.082;2022-11-20T08:19:26;11.30;;;9.83;;
37383;SDS011;23258;49.718;11.082;2022-11-20T08:21:55;13.53;;;10.03;;
37383;SDS011;23258;49.718;11.082;2022-11-20T08:24:25;14.70;;;10.47;;
37383;SDS011;23258;49.718;11.082;2022-11-20T08:26:56;15.23;;;11.80;;
37383;SDS011;23258;49.718;11.082;2022-11-20T08:29:26;12.23;;;10.17;;
37383;SDS011;23258;49.718;11.082;2022-11-20T08:31:56;15.70;;;10.80;;
37383;SDS011;23258;49.718;11.082;2022-11-20T08:34:28;15.93;;;11.07;;
37383;SDS011;23258;49.718;11.082;2022-11-20T08:36:58;14.93;;;11.93;;
37383;SDS011;23258;49.718;11.082;2022-11-20T08:39:27;14.53;;;11.23;;
37383;SDS011;23258;49.718;11.082;2022-11-20T08:41:56;17.97;;;12.47;;
37383;SDS011;23258;49.718;11.082;2022-11-20T08:44:26;23.50;;;15.17;;
37383;SDS011;23258;49.718;11.082;2022-11-20T08:46:55;16.80;;;12.83;;
37383;SDS011;23258;49.718;11.082;2022-11-20T08:49:28;15.40;;;11.73;;
37383;SDS011;23258;49.718;11.082;2022-11-20T08:51:57;18.50;;;12.10;;
37383;SDS011;23258;49.718;11.082;2022-11-20T08:54:27;14.10;;;11.43;;
37383;SDS011;23258;49.718;11.082;2022-11-20T08:56:56;13.40;;;10.67;;
37383;SDS011;23258;49.718;11.082;2022-11-20T08:59:26;15.13;;;11.77;;
37383;SDS011;23258;49.718;11.082;2022-11-20T09:02:16;13.33;;;10.23;;
37383;SDS011;23258;49.718;11.082;2022-11-20T09:04:48;11.93;;;10.50;;
37383;SDS011;23258;49.718;11.082;2022-11-20T09:07:17;14.40;;;10.77;;
37383;SDS011;23258;49.718;11.082;2022-11-20T09:09:47;14.97;;;10.47;;
37383;SDS011;23258;49.718;11.082;2022-11-20T09:12:37;11.73;;;9.37;;
37383;SDS011;23258;49.718;11.082;2022-11-20T09:15:07;12.70;;;10.20;;
37383;SDS011;23258;49.718;11.082;2022-11-20T09:17:37;14.53;;;10.73;;
37383;SDS011;23258;49.718;11.082;2022-11-20T09:20:10;12.50;;;10.00;;
37383;SDS011;23258;49.718;11.082;2022-11-20T09:22:39;12.03;;;8.93;;
37383;SDS011;23258;49.718;11.082;2022-11-20T09:25:09;13.60;;;8.60;;
37383;SDS011;23258;49.718;11.082;2022-11-20T09:27:38;14.27;;;10.37;;
37383;SDS011;23258;49.718;11.082;2022-11-20T09:30:10;12.90;;;9.73;;
37383;SDS011;23258;49.718;11.082;2022-11-20T09:32:40;12.63;;;9.67;;
37383;SDS011;23258;49.718;11.082;2022-11-20T09:35:12;13.60;;;10.00;;
37383;SDS011;23258;49.718;11.082;2022-11-20T09:37:42;12.80;;;9.83;;
37383;SDS011;23258;49.718;11.082;2022-11-20T09:40:17;11.67;;;9.60;;
37383;SDS011;23258;49.718;11.082;2022-11-20T09:42:50;13.47;;;9.27;;
37383;SDS011;23258;49.718;11.082;2022-11-20T09:45:23;12.53;;;8.80;;
37383;SDS011;23258;49.718;11.082;2022-11-20T09:47:58;14.33;;;9.20;;
37383;SDS011;23258;49.718;11.082;2022-11-20T09:50:36;15.17;;;9.90;;
37383;SDS011;23258;49.718;11.082;2022-11-20T09:53:11;11.10;;;8.93;;
37383;SDS011;23258;49.718;11.082;2022-11-20T09:55:41;10.67;;;8.60;;
37383;SDS011;23258;49.718;11.082;2022-11-20T09:58:13;11.27;;;9.57;;
37383;SDS011;23258;49.718;11.082;2022-11-20T10:00:45;14.13;;;9.50;;
37383;SDS011;23258;49.718;11.082;2022-11-20T10:03:16;11.47;;;8.43;;
37383;SDS011;23258;49.718;11.082;2022-11-20T10:05:51;15.93;;;11.07;;
37383;SDS011;23258;49.718;11.082;2022-11-20T10:08:22;14.07;;;10.93;;
37383;SDS011;23258;49.718;11.082;2022-11-20T10:10:58;14.67;;;10.97;;
37383;SDS011;23258;49.718;11.082;2022-11-20T10:13:31;20.00;;;13.40;;
37383;SDS011;23258;49.718;11.082;2022-11-20T10:16:08;16.90;;;12.03;;
37383;SDS011;23258;49.718;11.082;2022-11-20T10:18:44;14.33;;;11.90;;
37383;SDS011;23258;49.718;11.082;2022-11-20T10:21:21;16.63;;;12.77;;
37383;SDS011;23258;49.718;11.082;2022-11-20T10:24:06;17.80;;;13.80;;
37383;SDS011;23258;49.718;11.082;2022-11-20T10:26:39;15.80;;;12.73;;
37383;SDS011;23258;49.718;11.082;2022-11-20T10:29:11;15.83;;;11.90;;
37383;SDS011;23258;49.718;11.082;2022-11-20T10:31:42;18.37;;;12.67;;
37383;SDS011;23258;49.718;11.082;2022-11-20T10:34:16;17.43;;;13.77;;
37383;SDS011;23258;49.718;11.082;2022-11-20T10:36:52;16.23;;;12.43;;
37383;SDS011;23258;49.718;11.082;2022-11-20T10:39:25;15.90;;;12.37;;
37383;SDS011;23258;49.718;11.082;2022-11-20T10:41:59;16.60;;;12.00;;
37383;SDS011;23258;49.718;11.082;2022-11-20T10:44:29;14.07;;;11.00;;
37383;SDS011;23258;49.718;11.082;2022-11-20T10:47:12;11.57;;;8.63;;
37383;SDS011;23258;49.718;11.082;2022-11-20T10:49:42;9.30;;;7.83;;
37383;SDS011;23258;49.718;11.082;2022-11-20T10:52:16;11.37;;;9.23;;
37383;SDS011;23258;49.718;11.082;2022-11-20T10:54:49;11.07;;;8.33;;
37383;SDS011;23258;49.718;11.082;2022-11-20T10:57:23;12.43;;;9.37;;
37383;SDS011;23258;49.718;11.082;2022-11-20T11:00:03;13.30;;;9.93;;
37383;SDS011;23258;49.718;11.082;2022-11-20T11:02:34;14.87;;;10.10;;
37383;SDS011;23258;49.718;11.082;2022-11-20T11:05:10;13.07;;;9.63;;
37383;SDS011;23258;49.718;11.082;2022-11-20T11:07:43;13.40;;;9.90;;
37383;SDS011;23258;49.718;11.082;2022-11-20T11:10:14;10.90;;;8.80;;
37383;SDS011;23258;49.718;11.082;2022-11-20T11:12:45;12.73;;;8.57;;
37383;SDS011;23258;49.718;11.082;2022-11-20T11:15:24;10.50;;;8.43;;
37383;SDS011;23258;49.718;11.082;2022-11-20T11:17:54;20.00;;;15.87;;
37383;SDS011;23258;49.718;11.082;2022-11-20T11:20:24;11.83;;;8.73;;
37383;SDS011;23258;49.718;11.082;2022-11-20T11:22:57;11.30;;;8.87;;
37383;SDS011;23258;49.718;11.082;2022-11-20T11:25:28;10.43;;;9.03;;
37383;SDS011;23258;49.718;11.082;2022-11-20T11:28:00;21.87;;;17.50;;
37383;SDS011;23258;49.718;11.082;2022-11-20T11:30:41;12.77;;;9.87;;
37383;SDS011;23258;49.718;11.082;2022-11-20T11:33:11;16.10;;;11.73;;
37383;SDS011;23258;49.718;11.082;2022-11-20T11:35:44;17.33;;;11.07;;
37383;SDS011;23258;49.718;11.082;2022-11-20T11:38:21;15.10;;;10.13;;
37383;SDS011;23258;49.718;11.082;2022-11-20T11:40:52;13.23;;;9.13;;
37383;SDS011;23258;49.718;11.082;2022-11-20T11:43:24;11.23;;;9.43;;
37383;SDS011;23258;49.718;11.082;2022-11-20T11:46:12;13.33;;;10.60;;
37383;SDS011;23258;49.718;11.082;2022-11-20T11:48:53;12.77;;;10.20;;
37383;SDS011;23258;49.718;11.082;2022-11-20T11:51:23;13.55;;;9.57;;
37383;SDS011;23258;49.718;11.082;2022-11-20T11:53:58;16.08;;;11.48;;
37383;SDS011;23258;49.718;11.082;2022-11-20T11:56:28;13.90;;;9.50;;
37383;SDS011;23258;49.718;11.082;2022-11-20T11:59:00;13.27;;;9.50;;
37383;SDS011;23258;49.718;11.082;2022-11-20T12:01:32;13.40;;;10.40;;
37383;SDS011;23258;49.718;11.082;2022-11-20T12:04:05;11.02;;;9.77;;
37383;SDS011;23258;49.718;11.082;2022-11-20T12:06:41;13.32;;;9.68;;
37383;SDS011;23258;49.718;11.082;2022-11-20T12:09:15;14.00;;;9.73;;
37383;SDS011;23258;49.718;11.082;2022-11-20T12:11:46;14.35;;;10.65;;
37383;SDS011;23258;49.718;11.082;2022-11-20T12:14:20;14.75;;;11.18;;
37383;SDS011;23258;49.718;11.082;2022-11-20T12:16:52;15.98;;;10.40;;
37383;SDS011;23258;49.718;11.082;2022-11-20T12:19:24;13.48;;;10.75;;
37383;SDS011;23258;49.718;11.082;2022-11-20T12:21:56;14.67;;;11.27;;
37383;SDS011;23258;49.718;11.082;2022-11-20T12:24:39;25.45;;;15.70;;
37383;SDS011;23258;49.718;11.082;2022-11-20T12:27:25;12.25;;;10.85;;
37383;SDS011;23258;49.718;11.082;2022-11-20T12:30:00;9.15;;;6.72;;
37383;SDS011;23258;49.718;11.082;2022-11-20T12:32:37;6.97;;;6.15;;
37383;SDS011;23258;49.718;11.082;2022-11-20T12:35:13;5.53;;;5.03;;
37383;SDS011;23258;49.718;11.082;2022-11-20T12:37:48;5.70;;;4.17;;
37383;SDS011;23258;49.718;11.082;2022-11-20T12:40:27;5.03;;;4.50;;
37383;SDS011;23258;49.718;11.082;2022-11-20T12:43:01;7.00;;;5.47;;
37383;SDS011;23258;49.718;11.082;2022-11-20T12:45:49;8.30;;;6.20;;
37383;SDS011;23258;49.718;11.082;2022-11-20T12:48:30;6.70;;;5.07;;
37383;SDS011;23258;49.718;11.082;2022-11-20T12:51:24;5.83;;;4.73;;
37383;SDS011;23258;49.718;11.082;2022-11-20T12:54:00;7.83;;;7.07;;
37383;SDS011;23258;49.718;11.082;2022-11-20T12:56:37;5.60;;;5.10;;
37383;SDS011;23258;49.718;11.082;2022-11-20T12:59:18;7.50;;;6.13;;
37383;SDS011;23258;49.718;11.082;2022-11-20T13:01:52;7.00;;;6.13;;
37383;SDS011;23258;49.718;11.082;2022-11-20T13:07:18;6.97;;;6.27;;
37383;SDS011;23258;49.718;11.082;2022-11-20T13:09:49;7.07;;;6.37;;
37383;SDS011;23258;49.718;11.082;2022-11-20T13:12:22;7.10;;;6.27;;
37383;SDS011;23258;49.718;11.082;2022-11-20T13:14:53;9.03;;;7.07;;
37383;SDS011;23258;49.718;11.082;2022-11-20T13:17:28;8.73;;;7.13;;
37383;SDS011;23258;49.718;11.082;2022-11-20T13:20:01;8.27;;;6.87;;
37383;SDS011;23258;49.718;11.082;2022-11-20T13:22:42;9.63;;;6.97;;
37383;SDS011;23258;49.718;11.082;2022-11-20T13:25:21;7.63;;;6.83;;
37383;SDS011;23258;49.718;11.082;2022-11-20T13:27:54;8.67;;;7.27;;
37383;SDS011;23258;49.718;11.082;2022-11-20T13:30:24;7.60;;;6.77;;
37383;SDS011;23258;49.718;11.082;2022-11-20T13:32:54;8.10;;;6.93;;
37383;SDS011;23258;49.718;11.082;2022-11-20T13:35:27;10.17;;;7.20;;
37383;SDS011;23258;49.718;11.082;2022-11-20T13:38:01;7.67;;;6.87;;
37383;SDS011;23258;49.718;11.082;2022-11-20T13:40:31;8.70;;;6.47;;
37383;SDS011;23258;49.718;11.082;2022-11-20T13:43:08;10.40;;;6.60;;
37383;SDS011;23258;49.718;11.082;2022-11-20T13:45:40;10.77;;;6.80;;
37383;SDS011;23258;49.718;11.082;2022-11-20T13:48:19;9.87;;;6.93;;
37383;SDS011;23258;49.718;11.082;2022-11-20T13:50:52;8.47;;;6.20;;
37383;SDS011;23258;49.718;11.082;2022-11-20T13:53:28;7.40;;;6.77;;
37383;SDS011;23258;49.718;11.082;2022-11-20T13:56:01;8.23;;;6.77;;
37383;SDS011;23258;49.718;11.082;2022-11-20T13:58:43;8.43;;;6.53;;
37383;SDS011;23258;49.718;11.082;2022-11-20T14:01:16;8.20;;;7.40;;
37383;SDS011;23258;49.718;11.082;2022-11-20T14:03:46;7.23;;;6.53;;
37383;SDS011;23258;49.718;11.082;2022-11-20T14:06:32;8.23;;;7.10;;
37383;SDS011;23258;49.718;11.082;2022-11-20T14:09:02;9.27;;;6.83;;
37383;SDS011;23258;49.718;11.082;2022-11-20T14:11:32;8.63;;;7.55;;
37383;SDS011;23258;49.718;11.082;2022-11-20T14:14:04;8.95;;;6.85;;
37383;SDS011;23258;49.718;11.082;2022-11-20T14:16:42;9.77;;;7.13;;
37383;SDS011;23258;49.718;11.082;2022-11-20T14:19:27;12.77;;;9.20;;
37383;SDS011;23258;49.718;11.082;2022-11-20T14:22:08;15.47;;;10.53;;
37383;SDS011;23258;49.718;11.082;2022-11-20T14:24:38;14.90;;;9.80;;
37383;SDS011;23258;49.718;11.082;2022-11-20T14:27:11;13.23;;;9.07;;
37383;SDS011;23258;49.718;11.082;2022-11-20T14:29:44;13.87;;;9.90;;
37383;SDS011;23258;49.718;11.082;2022-11-20T14:32:14;10.63;;;8.60;;
37383;SDS011;23258;49.718;11.082;2022-11-20T14:34:45;14.13;;;9.30;;
37383;SDS011;23258;49.718;11.082;2022-11-20T14:37:17;9.57;;;8.53;;
37383;SDS011;23258;49.718;11.082;2022-11-20T14:39:48;12.20;;;9.07;;
37383;SDS011;23258;49.718;11.082;2022-11-20T14:42:18;9.70;;;8.30;;
37383;SDS011;23258;49.718;11.082;2022-11-20T14:44:54;12.03;;;7.63;;
37383;SDS011;23258;49.718;11.082;2022-11-20T14:47:25;10.75;;;7.97;;
37383;SDS011;23258;49.718;11.082;2022-11-20T14:49:55;9.57;;;8.50;;
37383;SDS011;23258;49.718;11.082;2022-11-20T14:52:25;10.90;;;7.97;;
37383;SDS011;23258;49.718;11.082;2022-11-20T14:54:57;10.70;;;8.15;;